sensor_id;sensor_type;location;lat;lon;timestamp;temperature;humidity
18268;DHT22;9260;49.998;19.880;2023-08-20T00:12:46;15.50;99.90
18268;DHT22;9260;49.998;19.880;2023-08-20T00:22:51;15.50;99.90
18268;DHT22;9260;49.998;19.880;2023-08-20T00:32:54;15.40;99.90
18268;DHT22;9260;49.998;19.880;2023-08-20T00:42:59;15.50;99.90
18268;DHT22;9260;49.998;19.880;2023-08-20T00:53:03;15.40;99.90
18268;DHT22;9260;49.998;19.880;2023-08-20T01:03:07;15.20;99.90
18268;DHT22;9260;49.998;19.880;2023-08-20T01:13:11;15.20;99.90
18268;DHT22;9260;49.998;19.880;2023-08-20T01:33:30;15.10;99.90
18268;DHT22;9260;49.998;19.880;2023-08-20T01:43:34;14.90;99.90
18268;DHT22;9260;49.998;19.880;2023-08-20T01:53:39;15.00;99.90
18268;DHT22;9260;49.998;19.880;2023-08-20T02:23:52;14.70;99.90
18268;DHT22;9260;49.998;19.880;2023-08-20T02:33:57;14.60;99.90
18268;DHT22;9260;49.998;19.880;2023-08-20T02:54:05;14.50;99.90
18268;DHT22;9260;49.998;19.880;2023-08-20T03:04:09;14.40;99.90
18268;DHT22;9260;49.998;19.880;2023-08-20T03:14:13;14.40;99.90
18268;DHT22;9260;49.998;19.880;2023-08-20T03:24:17;14.50;99.90
18268;DHT22;9260;49.998;19.880;2023-08-20T03:34:21;14.20;99.90
18268;DHT22;9260;49.998;19.880;2023-08-20T03:44:24;14.50;99.90
18268;DHT22;9260;49.998;19.880;2023-08-20T03:54:29;14.40;99.90
18268;DHT22;9260;49.998;19.880;2023-08-20T04:04:33;14.60;99.90
18268;DHT22;9260;49.998;19.880;2023-08-20T04:14:37;14.90;99.90
18268;DHT22;9260;49.998;19.880;2023-08-20T04:34:45;15.40;99.90
18268;DHT22;9260;49.998;19.880;2023-08-20T04:44:51;15.80;99.90
18268;DHT22;9260;49.998;19.880;2023-08-20T04:54:56;16.30;99.90
18268;DHT22;9260;49.998;19.880;2023-08-20T05:04:59;16.70;99.90
18268;DHT22;9260;49.998;19.880;2023-08-20T05:15:04;17.30;99.90
18268;DHT22;9260;49.998;19.880;2023-08-20T05:25:08;18.00;99.90
18268;DHT22;9260;49.998;19.880;2023-08-20T05:35:14;18.50;99.90
18268;DHT22;9260;49.998;19.880;2023-08-20T05:45:18;19.30;99.90
18268;DHT22;9260;49.998;19.880;2023-08-20T05:55:24;20.10;99.90
18268;DHT22;9260;49.998;19.880;2023-08-20T06:05:29;21.20;99.90
18268;DHT22;9260;49.998;19.880;2023-08-20T06:15:34;24.20;99.90
18268;DHT22;9260;49.998;19.880;2023-08-20T06:25:37;26.10;99.90
18268;DHT22;9260;49.998;19.880;2023-08-20T06:35:42;28.20;99.90
18268;DHT22;9260;49.998;19.880;2023-08-20T06:45:45;30.10;99.90
18268;DHT22;9260;49.998;19.880;2023-08-20T06:55:50;30.80;99.90
18268;DHT22;9260;49.998;19.880;2023-08-20T07:05:53;33.10;99.90
18268;DHT22;9260;49.998;19.880;2023-08-20T07:15:57;35.30;39.30
18268;DHT22;9260;49.998;19.880;2023-08-20T07:26:04;37.10;1.00
18268;DHT22;9260;49.998;19.880;2023-08-20T07:36:10;40.30;1.00
18268;DHT22;9260;49.998;19.880;2023-08-20T07:46:13;41.70;1.00
18268;DHT22;9260;49.998;19.880;2023-08-20T07:56:18;44.30;1.00
18268;DHT22;9260;49.998;19.880;2023-08-20T08:06:21;46.30;1.00
18268;DHT22;9260;49.998;19.880;2023-08-20T08:16:27;47.70;1.00
18268;DHT22;9260;49.998;19.880;2023-08-20T08:26:30;49.30;1.00
18268;DHT22;9260;49.998;19.880;2023-08-20T08:36:35;49.90;1.00
18268;DHT22;9260;49.998;19.880;2023-08-20T08:46:39;52.40;1.00
18268;DHT22;9260;49.998;19.880;2023-08-20T08:56:44;55.30;1.00
18268;DHT22;9260;49.998;19.880;2023-08-20T09:06:48;55.00;1.00
18268;DHT22;9260;49.998;19.880;2023-08-20T09:16:57;55.70;1.00
18268;DHT22;9260;49.998;19.880;2023-08-20T09:27:02;57.70;1.00
18268;DHT22;9260;49.998;19.880;2023-08-20T09:37:11;59.30;1.00
18268;DHT22;9260;49.998;19.880;2023-08-20T09:47:16;61.00;1.00
18268;DHT22;9260;49.998;19.880;2023-08-20T09:57:26;62.00;1.00
18268;DHT22;9260;49.998;19.880;2023-08-20T10:07:32;62.70;1.00
18268;DHT22;9260;49.998;19.880;2023-08-20T10:17:37;62.30;1.00
18268;DHT22;9260;49.998;19.880;2023-08-20T10:27:41;64.50;1.00
18268;DHT22;9260;49.998;19.880;2023-08-20T10:38:02;64.10;1.00
18268;DHT22;9260;49.998;19.880;2023-08-20T10:48:06;65.00;1.00
18268;DHT22;9260;49.998;19.880;2023-08-20T10:58:11;63.50;1.00
18268;DHT22;9260;49.998;19.880;2023-08-20T11:08:15;63.80;1.00
18268;DHT22;9260;49.998;19.880;2023-08-20T11:18:24;65.50;1.00
18268;DHT22;9260;49.998;19.880;2023-08-20T11:28:28;64.90;1.00
18268;DHT22;9260;49.998;19.880;2023-08-20T11:38:32;64.00;1.00
18268;DHT22;9260;49.998;19.880;2023-08-20T11:48:36;61.30;1.00
18268;DHT22;9260;49.998;19.880;2023-08-20T11:58:40;53.20;1.00
18268;DHT22;9260;49.998;19.880;2023-08-20T12:08:43;52.00;1.00
18268;DHT22;9260;49.998;19.880;2023-08-20T12:18:48;51.60;1.00
18268;DHT22;9260;49.998;19.880;2023-08-20T12:28:52;58.20;1.00
18268;DHT22;9260;49.998;19.880;2023-08-20T12:38:56;59.20;1.00
18268;DHT22;9260;49.998;19.880;2023-08-20T12:49:00;58.10;1.00
18268;DHT22;9260;49.998;19.880;2023-08-20T12:59:05;45.30;37.60
18268;DHT22;9260;49.998;19.880;2023-08-20T13:19:13;37.00;99.90
18268;DHT22;9260;49.998;19.880;2023-08-20T13:29:17;35.00;99.90
18268;DHT22;9260;49.998;19.880;2023-08-20T13:59:30;34.90;99.90
18268;DHT22;9260;49.998;19.880;2023-08-20T14:09:33;34.00;99.90
18268;DHT22;9260;49.998;19.880;2023-08-20T14:29:42;34.00;99.90
18268;DHT22;9260;49.998;19.880;2023-08-20T14:39:47;33.80;99.90
18268;DHT22;9260;49.998;19.880;2023-08-20T14:49:52;32.90;1.00
18268;DHT22;9260;49.998;19.880;2023-08-20T14:59:56;32.20;99.90
18268;DHT22;9260;49.998;19.880;2023-08-20T15:20:05;30.40;1.00
18268;DHT22;9260;49.998;19.880;2023-08-20T15:30:12;29.90;1.00
18268;DHT22;9260;49.998;19.880;2023-08-20T15:40:18;29.50;1.00
18268;DHT22;9260;49.998;19.880;2023-08-20T15:50:21;29.10;1.00
18268;DHT22;9260;49.998;19.880;2023-08-20T16:00:25;28.80;1.00
18268;DHT22;9260;49.998;19.880;2023-08-20T16:10:31;28.20;1.00
18268;DHT22;9260;49.998;19.880;2023-08-20T16:20:35;27.70;1.00
18268;DHT22;9260;49.998;19.880;2023-08-20T17:00:53;25.80;1.00
18268;DHT22;9260;49.998;19.880;2023-08-20T17:11:04;25.10;1.00
18268;DHT22;9260;49.998;19.880;2023-08-20T17:21:10;24.40;1.00
18268;DHT22;9260;49.998;19.880;2023-08-20T18:01:26;21.50;1.00
18268;DHT22;9260;49.998;19.880;2023-08-20T18:11:30;21.10;1.00
18268;DHT22;9260;49.998;19.880;2023-08-20T18:21:34;20.80;1.00
18268;DHT22;9260;49.998;19.880;2023-08-20T18:31:38;20.40;1.00
18268;DHT22;9260;49.998;19.880;2023-08-20T18:41:43;20.00;1.00
18268;DHT22;9260;49.998;19.880;2023-08-20T18:51:46;19.90;1.00
18268;DHT22;9260;49.998;19.880;2023-08-20T19:22:00;19.40;1.00
18268;DHT22;9260;49.998;19.880;2023-08-20T19:32:03;19.00;1.00
18268;DHT22;9260;49.998;19.880;2023-08-20T20:02:18;18.40;1.00
18268;DHT22;9260;49.998;19.880;2023-08-20T20:12:21;18.30;1.00
18268;DHT22;9260;49.998;19.880;2023-08-20T20:22:27;18.10;1.00
18268;DHT22;9260;49.998;19.880;2023-08-20T21:02:46;17.40;1.00
18268;DHT22;9260;49.998;19.880;2023-08-20T21:32:57;17.10;1.00
18268;DHT22;9260;49.998;19.880;2023-08-20T21:43:02;17.00;1.00
18268;DHT22;9260;49.998;19.880;2023-08-20T21:53:06;16.70;1.00
18268;DHT22;9260;49.998;19.880;2023-08-20T22:03:10;16.60;1.00
18268;DHT22;9260;49.998;19.880;2023-08-20T22:13:14;16.40;1.00
18268;DHT22;9260;49.998;19.880;2023-08-20T22:23:19;16.40;99.90
18268;DHT22;9260;49.998;19.880;2023-08-20T22:33:23;16.40;99.90
18268;DHT22;9260;49.998;19.880;2023-08-20T22:43:27;16.40;99.90
18268;DHT22;9260;49.998;19.880;2023-08-20T22:53:31;16.30;99.90
18268;DHT22;9260;49.998;19.880;2023-08-20T23:03:36;16.30;99.90
18268;DHT22;9260;49.998;19.880;2023-08-20T23:13:39;16.00;99.90
18268;DHT22;9260;49.998;19.880;2023-08-20T23:23:44;16.00;99.90
18268;DHT22;9260;49.998;19.880;2023-08-20T23:33:47;15.90;99.90
18268;DHT22;9260;49.998;19.880;2023-08-20T23:43:52;15.90;99.90
18268;DHT22;9260;49.998;19.880;2023-08-20T23:53:56;15.80;99.90
